createdAt,value
2022-10-07T00:01:11.877Z,11.43
2022-10-07T00:03:40.788Z,12.83
2022-10-07T00:06:13.238Z,12.60
2022-10-07T00:08:44.860Z,6.10
2022-10-07T00:11:15.616Z,8.00
2022-10-07T00:13:45.552Z,11.63
2022-10-07T00:16:15.809Z,12.70
2022-10-07T00:18:45.253Z,11.00
2022-10-07T00:21:15.356Z,10.23
2022-10-07T00:23:45.901Z,10.03
2022-10-07T00:26:15.983Z,13.20
2022-10-07T00:28:44.651Z,10.10
2022-10-07T00:31:16.810Z,8.73
2022-10-07T00:33:45.483Z,6.90
2022-10-07T00:36:15.954Z,9.47
2022-10-07T00:38:45.440Z,8.97
2022-10-07T00:41:19.166Z,9.50
2022-10-07T00:43:47.689Z,3.33
2022-10-07T00:46:22.744Z,5.60
2022-10-07T00:48:51.286Z,4.57
2022-10-07T00:51:19.447Z,4.13
2022-10-07T00:53:53.395Z,6.63
2022-10-07T00:56:22.236Z,5.07
2022-10-07T00:58:51.448Z,7.10
2022-10-07T01:01:20.635Z,5.83
2022-10-07T01:03:49.477Z,2.80
2022-10-07T01:06:17.901Z,4.33
2022-10-07T01:08:48.756Z,5.50
2022-10-07T01:11:29.607Z,7.37
2022-10-07T01:14:07.434Z,3.60
2022-10-07T01:16:44.223Z,9.90
2022-10-07T01:19:33.738Z,6.43
2022-10-07T01:22:16.020Z,5.40
2022-10-07T01:24:51.233Z,11.70
2022-10-07T01:27:22.736Z,7.13
2022-10-07T01:29:56.943Z,9.97
2022-10-07T01:32:32.135Z,9.87
2022-10-07T01:35:02.757Z,9.23
2022-10-07T01:37:36.086Z,4.87
2022-10-07T01:40:08.691Z,6.00
2022-10-07T01:42:38.869Z,8.40
2022-10-07T01:45:11.139Z,11.53
2022-10-07T01:47:39.204Z,12.97
2022-10-07T01:50:13.151Z,8.70
2022-10-07T01:52:59.586Z,11.80
2022-10-07T01:55:42.301Z,5.70
2022-10-07T01:58:23.657Z,9.00
2022-10-07T02:00:59.397Z,8.83
2022-10-07T02:03:53.370Z,9.67
2022-10-07T02:06:31.297Z,8.50
2022-10-07T02:09:08.608Z,9.23
2022-10-07T02:11:41.253Z,16.63
2022-10-07T02:14:13.524Z,14.73
2022-10-07T02:16:45.192Z,8.90
2022-10-07T02:19:17.377Z,7.20
2022-10-07T02:21:49.232Z,8.00
2022-10-07T02:24:20.276Z,14.50
2022-10-07T02:26:50.883Z,7.80
2022-10-07T02:29:23.373Z,6.90
2022-10-07T02:31:53.287Z,8.53
2022-10-07T02:34:23.969Z,11.53
2022-10-07T02:36:55.881Z,10.30
2022-10-07T02:39:24.259Z,8.07
2022-10-07T02:42:00.074Z,7.97
2022-10-07T02:44:32.679Z,10.77
2022-10-07T02:47:06.299Z,8.00
2022-10-07T02:49:39.193Z,7.10
2022-10-07T02:52:10.377Z,9.40
2022-10-07T02:54:52.818Z,7.70
2022-10-07T02:57:22.943Z,9.20
2022-10-07T02:59:53.592Z,11.43
2022-10-07T03:02:32.582Z,17.63
2022-10-07T03:05:00.991Z,18.97
2022-10-07T03:07:29.585Z,11.17
2022-10-07T03:09:57.834Z,9.00
2022-10-07T03:12:26.205Z,7.43
2022-10-07T03:14:55.709Z,9.47
2022-10-07T03:17:23.833Z,8.93
2022-10-07T03:19:51.885Z,12.50
2022-10-07T03:22:20.809Z,10.73
2022-10-07T03:24:48.868Z,12.30
2022-10-07T03:27:16.977Z,10.83
2022-10-07T03:29:45.169Z,8.00
2022-10-07T03:32:15.194Z,18.53
2022-10-07T03:34:43.256Z,14.77
2022-10-07T03:37:11.533Z,9.83
2022-10-07T03:39:39.758Z,9.03
2022-10-07T03:42:08.885Z,7.53
2022-10-07T03:44:38.428Z,11.10
2022-10-07T03:47:10.701Z,8.63
2022-10-07T03:49:41.604Z,11.03
2022-10-07T03:52:09.745Z,10.70
2022-10-07T03:54:37.802Z,10.13
2022-10-07T03:57:26.415Z,9.80
2022-10-07T03:59:54.538Z,10.20
2022-10-07T04:02:23.480Z,7.13
2022-10-07T04:04:53.521Z,8.03
2022-10-07T04:07:22.164Z,10.70
2022-10-07T04:09:50.576Z,6.00
2022-10-07T04:12:18.682Z,3.30
2022-10-07T04:14:46.881Z,4.93
2022-10-07T04:17:14.982Z,6.67
2022-10-07T04:19:43.081Z,3.80
2022-10-07T04:22:12.693Z,10.87
2022-10-07T04:24:40.866Z,6.07
2022-10-07T04:27:10.158Z,8.13
2022-10-07T04:29:39.344Z,9.37
2022-10-07T04:32:08.057Z,7.43
2022-10-07T04:34:36.185Z,7.33
2022-10-07T04:37:05.544Z,8.53
2022-10-07T04:39:59.147Z,4.90
2022-10-07T04:42:41.400Z,3.97
2022-10-07T04:45:10.207Z,5.53
2022-10-07T04:47:38.349Z,7.37
2022-10-07T04:50:08.013Z,6.27
2022-10-07T04:52:36.354Z,7.47
2022-10-07T04:55:06.993Z,6.97
2022-10-07T04:57:35.051Z,6.47
2022-10-07T05:00:03.380Z,11.03
2022-10-07T05:02:31.654Z,5.63
2022-10-07T05:05:00.032Z,5.57
2022-10-07T05:07:28.668Z,10.90
2022-10-07T05:09:56.812Z,6.57
2022-10-07T05:12:26.771Z,15.17
2022-10-07T05:14:54.980Z,16.70
2022-10-07T05:17:23.300Z,18.20
2022-10-07T05:19:51.398Z,19.10
2022-10-07T05:22:19.814Z,15.10
2022-10-07T05:24:47.875Z,12.73
2022-10-07T05:27:16.043Z,15.90
2022-10-07T05:29:45.406Z,10.87
2022-10-07T05:32:13.570Z,9.47
2022-10-07T05:34:41.599Z,6.57
2022-10-07T05:37:09.907Z,23.13
2022-10-07T05:39:38.360Z,11.23
2022-10-07T05:42:06.665Z,13.93
2022-10-07T05:44:34.738Z,12.00
2022-10-07T05:47:07.839Z,17.00
2022-10-07T05:49:37.670Z,14.97
2022-10-07T05:52:07.959Z,9.10
2022-10-07T05:54:37.278Z,14.40
2022-10-07T05:57:06.145Z,8.93
2022-10-07T05:59:34.773Z,9.80
2022-10-07T06:02:04.649Z,9.90
2022-10-07T06:04:33.175Z,17.17
2022-10-07T06:07:05.430Z,10.40
2022-10-07T06:09:50.779Z,17.30
2022-10-07T06:12:36.432Z,15.73
2022-10-07T06:15:09.580Z,27.97
2022-10-07T06:17:47.560Z,14.07
2022-10-07T06:20:16.251Z,9.63
2022-10-07T06:22:44.530Z,16.43
2022-10-07T06:25:12.906Z,13.60
2022-10-07T06:27:41.302Z,14.83
2022-10-07T06:30:10.681Z,10.63
2022-10-07T06:32:40.794Z,9.80
2022-10-07T06:35:10.104Z,14.83
2022-10-07T06:37:39.401Z,16.07
2022-10-07T06:40:08.672Z,9.27
2022-10-07T06:42:39.777Z,13.03
2022-10-07T06:45:10.309Z,13.37
2022-10-07T06:47:39.930Z,15.40
2022-10-07T06:50:08.841Z,25.53
2022-10-07T06:52:41.196Z,12.93
2022-10-07T06:55:11.758Z,10.53
2022-10-07T06:57:46.852Z,12.63
2022-10-07T07:00:15.962Z,9.17
2022-10-07T07:02:45.583Z,9.37
2022-10-07T07:05:16.469Z,6.30
2022-10-07T07:07:44.961Z,8.27
2022-10-07T07:10:13.368Z,9.93
2022-10-07T07:12:41.613Z,5.77
2022-10-07T07:15:10.945Z,8.23
2022-10-07T07:17:39.041Z,7.37
2022-10-07T07:20:09.415Z,8.50
2022-10-07T07:22:37.795Z,8.20
2022-10-07T07:25:06.689Z,16.03
2022-10-07T07:27:34.768Z,6.90
2022-10-07T07:30:03.185Z,22.10
2022-10-07T07:32:31.204Z,13.50
2022-10-07T07:35:00.841Z,10.03
2022-10-07T07:37:30.345Z,17.20
2022-10-07T07:39:58.754Z,12.03
2022-10-07T07:42:28.146Z,22.10
2022-10-07T07:44:57.789Z,19.10
2022-10-07T07:47:26.640Z,17.60
2022-10-07T07:49:54.955Z,20.13
2022-10-07T07:52:25.673Z,15.00
2022-10-07T07:54:58.330Z,14.43
2022-10-07T07:57:27.093Z,23.63
2022-10-07T07:59:55.839Z,15.87
2022-10-07T08:02:24.495Z,17.77
2022-10-07T08:04:54.012Z,14.73
2022-10-07T08:07:22.251Z,13.67
2022-10-07T08:09:51.104Z,18.23
2022-10-07T08:12:23.440Z,13.87
2022-10-07T08:14:52.350Z,20.40
2022-10-07T08:17:20.385Z,21.30
2022-10-07T08:19:48.534Z,25.20
2022-10-07T08:22:18.038Z,22.77
2022-10-07T08:24:47.283Z,22.47
2022-10-07T08:27:15.418Z,17.57
2022-10-07T08:29:45.640Z,29.70
2022-10-07T08:32:13.778Z,16.27
2022-10-07T08:34:41.981Z,17.60
2022-10-07T08:37:10.067Z,15.30
2022-10-07T08:39:38.132Z,16.63
2022-10-07T08:42:13.638Z,16.23
2022-10-07T08:44:45.356Z,10.53
2022-10-07T08:47:24.030Z,14.90
2022-10-07T08:50:04.518Z,15.83
2022-10-07T08:52:43.313Z,14.10
2022-10-07T08:55:18.809Z,18.70
2022-10-07T08:58:06.555Z,15.27
2022-10-07T09:00:43.733Z,14.93
2022-10-07T09:03:24.778Z,10.10
2022-10-07T09:05:56.485Z,14.27
2022-10-07T09:08:30.109Z,7.40
2022-10-07T09:11:15.893Z,14.30
2022-10-07T09:13:49.006Z,10.80
2022-10-07T09:16:22.841Z,9.73
2022-10-07T09:18:54.588Z,13.30
2022-10-07T09:21:26.134Z,11.13
2022-10-07T09:23:58.232Z,17.43
2022-10-07T09:26:28.015Z,11.93
2022-10-07T09:28:56.116Z,16.00
2022-10-07T09:31:26.521Z,13.63
2022-10-07T09:33:55.469Z,11.77
2022-10-07T09:36:25.020Z,7.60
2022-10-07T09:38:53.933Z,6.90
2022-10-07T09:41:31.394Z,10.47
2022-10-07T09:44:06.135Z,6.03
2022-10-07T09:46:48.861Z,8.93
2022-10-07T09:49:41.609Z,7.63
2022-10-07T09:52:24.059Z,7.83
2022-10-07T09:54:54.501Z,13.23
2022-10-07T09:57:34.879Z,10.23
2022-10-07T10:00:24.880Z,12.83
2022-10-07T10:03:04.161Z,9.27
2022-10-07T10:05:35.295Z,13.70
2022-10-07T10:08:20.443Z,10.40
2022-10-07T10:10:53.197Z,7.60
2022-10-07T10:13:31.331Z,11.00
2022-10-07T10:16:00.495Z,8.07
2022-10-07T10:18:38.791Z,5.50
2022-10-07T10:21:22.158Z,4.90
2022-10-07T10:23:52.648Z,6.63
2022-10-07T10:26:48.707Z,6.53
2022-10-07T10:29:30.130Z,6.20
2022-10-07T10:32:27.092Z,11.40
2022-10-07T10:35:04.171Z,8.30
2022-10-07T10:37:58.354Z,7.17
2022-10-07T10:40:33.930Z,11.47
2022-10-07T10:43:20.511Z,11.60
2022-10-07T10:46:01.872Z,13.43
2022-10-07T10:48:40.867Z,11.20
2022-10-07T10:51:24.276Z,9.83
2022-10-07T10:54:05.878Z,11.87
2022-10-07T10:56:41.609Z,7.30
2022-10-07T10:59:22.208Z,6.97
2022-10-07T11:01:56.959Z,10.40
2022-10-07T11:04:43.611Z,9.47
2022-10-07T11:07:20.246Z,8.27
2022-10-07T11:09:52.559Z,6.97
2022-10-07T11:12:26.491Z,4.63
2022-10-07T11:14:59.019Z,11.33
2022-10-07T11:17:32.097Z,7.80
2022-10-07T11:20:13.878Z,5.03
2022-10-07T11:22:49.627Z,6.20
2022-10-07T11:25:26.309Z,9.97
2022-10-07T11:28:01.797Z,7.50
2022-10-07T11:30:37.213Z,8.20
2022-10-07T11:33:11.664Z,6.07
2022-10-07T11:35:45.224Z,11.00
2022-10-07T11:38:20.064Z,10.60
2022-10-07T11:40:52.169Z,16.30
2022-10-07T11:43:27.392Z,9.13
2022-10-07T11:46:02.196Z,8.37
2022-10-07T11:48:39.124Z,7.77
2022-10-07T11:51:25.100Z,11.63
2022-10-07T11:53:59.546Z,11.83
2022-10-07T11:56:29.253Z,10.53
2022-10-07T11:59:02.062Z,13.93
2022-10-07T12:01:49.371Z,19.57
2022-10-07T12:04:43.406Z,14.03
2022-10-07T12:07:40.620Z,7.00
2022-10-07T12:10:32.334Z,10.73
2022-10-07T12:13:20.754Z,7.27
2022-10-07T12:15:49.606Z,8.10
2022-10-07T12:18:33.329Z,7.10
2022-10-07T12:21:09.525Z,8.07
2022-10-07T12:23:46.193Z,12.87
2022-10-07T12:26:53.461Z,9.77
2022-10-07T12:29:50.151Z,8.70
2022-10-07T12:32:59.032Z,7.00
2022-10-07T12:35:54.354Z,10.90
2022-10-07T12:38:25.804Z,7.27
2022-10-07T12:41:04.555Z,10.50
2022-10-07T12:43:45.531Z,7.13
2022-10-07T12:46:18.882Z,8.60
2022-10-07T12:48:50.617Z,10.20
2022-10-07T12:51:24.483Z,7.73
2022-10-07T12:53:53.757Z,10.53
2022-10-07T12:56:27.699Z,6.63
2022-10-07T12:59:40.317Z,5.90
2022-10-07T13:02:53.168Z,5.40
2022-10-07T13:05:55.015Z,15.20
2022-10-07T13:09:08.453Z,10.93
2022-10-07T13:12:13.938Z,9.50
2022-10-07T13:14:51.487Z,9.07
2022-10-07T13:17:28.054Z,10.00
2022-10-07T13:20:05.626Z,6.47
2022-10-07T13:22:34.050Z,9.70
2022-10-07T13:25:05.545Z,10.17
2022-10-07T13:27:37.183Z,7.63
2022-10-07T13:30:07.324Z,4.87
2022-10-07T13:32:36.994Z,9.93
2022-10-07T13:35:29.971Z,8.03
2022-10-07T13:37:58.418Z,7.50
2022-10-07T13:40:28.452Z,7.83
2022-10-07T13:42:59.431Z,5.40
2022-10-07T13:45:28.927Z,12.00
2022-10-07T13:47:58.116Z,7.20
2022-10-07T13:50:31.952Z,7.40
2022-10-07T13:53:03.212Z,5.60
2022-10-07T13:55:38.956Z,8.03
2022-10-07T13:58:07.610Z,6.60
2022-10-07T14:00:48.241Z,4.57
2022-10-07T14:03:20.348Z,4.80
2022-10-07T14:05:53.550Z,4.40
2022-10-07T14:08:27.111Z,6.10
2022-10-07T14:11:02.704Z,4.80
2022-10-07T14:13:31.772Z,2.77
2022-10-07T14:16:01.346Z,3.30
2022-10-07T14:18:31.368Z,6.40
2022-10-07T14:21:17.581Z,5.17
2022-10-07T14:23:49.737Z,7.53
2022-10-07T14:26:19.166Z,4.10
2022-10-07T14:28:47.394Z,5.50
2022-10-07T14:31:39.329Z,8.73
2022-10-07T14:34:32.212Z,5.47
2022-10-07T14:37:09.291Z,8.97
2022-10-07T14:39:39.699Z,7.47
2022-10-07T14:42:13.101Z,6.00
2022-10-07T14:44:44.055Z,4.63
2022-10-07T14:47:15.102Z,3.90
2022-10-07T14:49:43.612Z,4.37
2022-10-07T14:52:18.356Z,4.23
2022-10-07T14:54:46.768Z,2.73
2022-10-07T14:57:15.107Z,4.50
2022-10-07T14:59:43.384Z,9.00
2022-10-07T15:02:13.680Z,6.20
2022-10-07T15:04:45.532Z,3.87
2022-10-07T15:07:18.410Z,3.87
2022-10-07T15:09:48.181Z,11.30
2022-10-07T15:12:21.664Z,6.90
2022-10-07T15:14:52.249Z,7.93
2022-10-07T15:17:23.656Z,3.60
2022-10-07T15:19:53.147Z,10.43
2022-10-07T15:22:22.629Z,7.63
2022-10-07T15:24:51.321Z,4.53
2022-10-07T15:27:19.947Z,5.63
2022-10-07T15:29:48.059Z,6.27
2022-10-07T15:32:16.251Z,5.87
2022-10-07T15:34:45.947Z,5.27
2022-10-07T15:37:14.734Z,5.63
2022-10-07T15:39:44.392Z,4.70
2022-10-07T15:42:13.018Z,8.70
2022-10-07T15:44:45.063Z,5.70
2022-10-07T15:47:17.463Z,6.50
2022-10-07T15:49:46.902Z,5.03
2022-10-07T15:52:15.607Z,13.87
2022-10-07T15:54:46.454Z,5.50
2022-10-07T15:57:16.100Z,6.17
2022-10-07T15:59:44.754Z,11.40
2022-10-07T16:02:16.775Z,10.00
2022-10-07T16:04:47.339Z,7.03
2022-10-07T16:07:15.458Z,6.00
2022-10-07T16:09:44.819Z,7.80
2022-10-07T16:12:13.673Z,8.77
2022-10-07T16:14:41.686Z,6.10
2022-10-07T16:17:09.754Z,6.10
2022-10-07T16:19:37.657Z,8.50
2022-10-07T16:22:05.705Z,7.63
2022-10-07T16:24:35.496Z,10.80
2022-10-07T16:27:05.688Z,7.17
2022-10-07T16:29:53.402Z,8.60
2022-10-07T16:32:21.469Z,7.40
2022-10-07T16:34:49.666Z,10.20
2022-10-07T16:37:18.003Z,6.47
2022-10-07T16:39:46.444Z,8.87
2022-10-07T16:42:17.800Z,7.10
2022-10-07T16:44:50.655Z,8.90
2022-10-07T16:47:19.818Z,13.23
2022-10-07T16:49:48.153Z,6.90
2022-10-07T16:52:16.285Z,6.87
2022-10-07T16:54:44.399Z,10.73
2022-10-07T16:57:15.090Z,7.10
2022-10-07T16:59:46.991Z,6.80
2022-10-07T17:02:15.231Z,11.00
2022-10-07T17:04:43.451Z,13.27
2022-10-07T17:07:11.839Z,22.17
2022-10-07T17:09:40.604Z,9.57
2022-10-07T17:12:09.953Z,13.53
2022-10-07T17:14:39.114Z,10.33
2022-10-07T17:17:08.806Z,13.70
2022-10-07T17:19:37.708Z,10.73
2022-10-07T17:22:05.904Z,16.20
2022-10-07T17:24:34.005Z,11.90
2022-10-07T17:27:02.424Z,10.57
2022-10-07T17:29:35.023Z,8.60
2022-10-07T17:32:05.643Z,12.90
2022-10-07T17:34:35.384Z,11.13
2022-10-07T17:37:03.444Z,10.20
2022-10-07T17:39:32.103Z,6.60
2022-10-07T17:42:00.134Z,11.57
2022-10-07T17:44:28.362Z,11.50
2022-10-07T17:46:58.957Z,16.30
2022-10-07T17:49:27.142Z,9.20
2022-10-07T17:51:57.341Z,6.47
2022-10-07T17:54:25.572Z,8.10
2022-10-07T17:56:53.839Z,10.80
2022-10-07T17:59:21.842Z,8.77
2022-10-07T18:01:49.898Z,7.23
2022-10-07T18:04:24.755Z,11.37
2022-10-07T18:06:53.420Z,4.60
2022-10-07T18:09:24.371Z,6.27
2022-10-07T18:12:09.848Z,12.73
2022-10-07T18:14:55.321Z,5.83
2022-10-07T18:17:26.672Z,12.10
2022-10-07T18:19:58.429Z,8.73
2022-10-07T18:22:27.109Z,7.20
2022-10-07T18:24:58.564Z,11.03
2022-10-07T18:27:27.338Z,14.57
2022-10-07T18:29:55.895Z,12.70
2022-10-07T18:32:24.958Z,17.67
2022-10-07T18:34:53.020Z,15.77
2022-10-07T18:37:21.156Z,13.97
2022-10-07T18:39:49.182Z,12.57
2022-10-07T18:42:18.834Z,11.33
2022-10-07T18:44:47.355Z,14.17
2022-10-07T18:47:15.642Z,15.30
2022-10-07T18:49:43.651Z,10.80
2022-10-07T18:52:11.704Z,16.93
2022-10-07T18:54:39.859Z,13.40
2022-10-07T18:57:08.166Z,10.90
2022-10-07T18:59:37.813Z,14.77
2022-10-07T19:02:06.054Z,13.07
2022-10-07T19:04:34.156Z,11.90
2022-10-07T19:07:03.080Z,21.23
2022-10-07T19:09:31.247Z,11.63
2022-10-07T19:11:59.512Z,12.50
2022-10-07T19:14:28.128Z,12.57
2022-10-07T19:16:57.793Z,8.67
2022-10-07T19:19:26.641Z,19.57
2022-10-07T19:21:55.988Z,13.87
2022-10-07T19:24:45.531Z,15.00
2022-10-07T19:27:14.353Z,15.00
2022-10-07T19:29:42.421Z,17.70
2022-10-07T19:32:13.138Z,9.30
2022-10-07T19:34:44.716Z,13.00
2022-10-07T19:37:13.045Z,15.90
2022-10-07T19:39:41.181Z,14.13
2022-10-07T19:42:09.260Z,13.10
2022-10-07T19:44:38.530Z,13.90
2022-10-07T19:47:06.797Z,10.23
2022-10-07T19:49:37.522Z,8.60
2022-10-07T19:52:05.658Z,12.93
2022-10-07T19:54:36.017Z,11.50
2022-10-07T19:57:04.535Z,9.07
2022-10-07T19:59:32.588Z,11.97
2022-10-07T20:02:01.346Z,15.53
2022-10-07T20:04:30.268Z,11.70
2022-10-07T20:06:59.643Z,17.10
2022-10-07T20:09:28.351Z,11.70
2022-10-07T20:11:56.852Z,13.10
2022-10-07T20:14:24.931Z,16.60
2022-10-07T20:16:55.636Z,9.87
2022-10-07T20:19:23.881Z,12.97
2022-10-07T20:21:52.033Z,9.87
2022-10-07T20:24:21.620Z,13.97
2022-10-07T20:26:49.710Z,10.47
2022-10-07T20:29:21.466Z,12.30
2022-10-07T20:31:52.545Z,13.77
2022-10-07T20:34:20.883Z,13.47
2022-10-07T20:36:50.495Z,13.33
2022-10-07T20:39:39.437Z,14.80
2022-10-07T20:42:24.570Z,18.60
2022-10-07T20:44:54.110Z,18.17
2022-10-07T20:47:23.549Z,20.70
2022-10-07T20:52:26.094Z,14.87
2022-10-07T20:54:59.038Z,21.00
2022-10-07T20:57:28.996Z,19.67
2022-10-07T20:59:57.170Z,21.83
2022-10-07T21:02:28.510Z,18.07
2022-10-07T21:04:56.627Z,18.77
2022-10-07T21:07:24.741Z,14.13
2022-10-07T21:09:52.960Z,17.73
2022-10-07T21:12:22.401Z,11.33
2022-10-07T21:14:51.232Z,12.50
2022-10-07T21:17:19.356Z,11.83
2022-10-07T21:19:47.602Z,16.80
2022-10-07T21:22:15.960Z,17.33
2022-10-07T21:24:44.014Z,19.90
2022-10-07T21:27:12.258Z,16.20
2022-10-07T21:29:43.264Z,22.53
2022-10-07T21:32:13.872Z,13.67
2022-10-07T21:34:41.999Z,16.40
2022-10-07T21:37:10.205Z,16.30
2022-10-07T21:39:38.245Z,15.07
2022-10-07T21:42:06.754Z,16.30
2022-10-07T21:44:35.686Z,13.70
2022-10-07T21:47:05.267Z,17.60
2022-10-07T21:49:33.305Z,20.20
2022-10-07T21:52:01.344Z,21.83
2022-10-07T21:54:30.386Z,14.10
2022-10-07T21:56:58.626Z,21.17
2022-10-07T21:59:26.626Z,18.57
2022-10-07T22:01:58.154Z,16.73
2022-10-07T22:04:30.750Z,15.37
2022-10-07T22:07:16.656Z,17.00
2022-10-07T22:09:44.700Z,17.70
2022-10-07T22:12:13.533Z,24.47
2022-10-07T22:14:41.607Z,19.60
2022-10-07T22:17:10.124Z,23.53
2022-10-07T22:19:39.456Z,20.70
2022-10-07T22:22:07.905Z,23.70
2022-10-07T22:24:36.084Z,21.10
2022-10-07T22:27:04.516Z,22.50
2022-10-07T22:29:32.597Z,22.83
2022-10-07T22:32:00.656Z,17.67
2022-10-07T22:34:46.621Z,20.37
2022-10-07T22:37:16.095Z,21.90
2022-10-07T22:39:44.124Z,22.97
2022-10-07T22:42:12.518Z,22.73
2022-10-07T22:44:40.537Z,32.20
2022-10-07T22:47:08.586Z,24.70
2022-10-07T22:49:36.660Z,22.43
2022-10-07T22:52:05.076Z,22.43
2022-10-07T22:54:34.502Z,25.70
2022-10-07T22:57:02.998Z,26.60
2022-10-07T22:59:31.003Z,23.33
2022-10-07T23:01:59.180Z,24.07
2022-10-07T23:04:27.214Z,22.60
2022-10-07T23:06:55.395Z,27.33
2022-10-07T23:09:23.439Z,30.30
2022-10-07T23:11:53.124Z,23.47
2022-10-07T23:14:21.134Z,21.20
2022-10-07T23:16:49.219Z,23.23
2022-10-07T23:19:17.215Z,27.97
2022-10-07T23:21:45.815Z,22.63
2022-10-07T23:24:15.909Z,26.13
2022-10-07T23:26:45.979Z,24.30
2022-10-07T23:29:15.750Z,20.67
2022-10-07T23:31:45.188Z,22.20
2022-10-07T23:34:13.884Z,26.40
2022-10-07T23:36:42.016Z,21.00
2022-10-07T23:39:10.186Z,26.53
2022-10-07T23:41:38.260Z,29.40
2022-10-07T23:44:06.394Z,25.27
2022-10-07T23:46:36.675Z,20.73
2022-10-07T23:49:05.654Z,27.23
2022-10-07T23:51:34.734Z,22.37
2022-10-07T23:54:04.252Z,26.30
2022-10-07T23:56:33.363Z,25.90
2022-10-07T23:59:02.863Z,24.17
